createdAt,value
2023-11-15T00:01:08.136Z,97.50
2023-11-15T00:03:35.289Z,97.20
2023-11-15T00:06:02.711Z,97.10
2023-11-15T00:08:29.895Z,97.10
2023-11-15T00:10:56.830Z,96.90
2023-11-15T00:13:24.365Z,97.00
2023-11-15T00:15:52.145Z,96.80
2023-11-15T00:18:19.134Z,96.70
2023-11-15T00:20:46.384Z,96.60
2023-11-15T00:23:13.352Z,96.50
2023-11-15T00:25:40.249Z,96.60
2023-11-15T00:28:07.147Z,96.50
2023-11-15T00:30:34.058Z,96.60
2023-11-15T00:33:01.117Z,96.60
2023-11-15T00:35:28.303Z,96.60
2023-11-15T00:37:55.690Z,96.50
2023-11-15T00:40:22.686Z,96.30
2023-11-15T00:42:50.339Z,96.40
2023-11-15T00:45:17.376Z,96.40
2023-11-15T00:47:44.441Z,96.20
2023-11-15T00:50:11.678Z,96.20
2023-11-15T00:52:38.733Z,96.10
2023-11-15T00:55:07.453Z,96.10
2023-11-15T00:57:35.686Z,96.00
2023-11-15T01:00:08.286Z,95.70
2023-11-15T01:02:44.017Z,95.50
2023-11-15T01:05:11.023Z,95.60
2023-11-15T01:07:37.923Z,95.20
2023-11-15T01:10:09.345Z,95.40
2023-11-15T01:12:36.330Z,95.10
2023-11-15T01:15:06.021Z,95.30
2023-11-15T01:17:35.493Z,95.20
2023-11-15T01:20:04.702Z,95.10
2023-11-15T01:22:31.614Z,95.10
2023-11-15T01:24:58.843Z,95.10
2023-11-15T01:27:28.960Z,95.20
2023-11-15T01:29:55.947Z,95.30
2023-11-15T01:32:23.586Z,95.30
2023-11-15T01:34:50.656Z,95.20
2023-11-15T01:37:18.387Z,95.20
2023-11-15T01:39:45.357Z,95.20
2023-11-15T01:42:12.808Z,95.30
2023-11-15T01:44:39.835Z,95.30
2023-11-15T01:47:07.070Z,95.30
2023-11-15T01:49:33.992Z,95.50
2023-11-15T01:52:01.027Z,95.50
2023-11-15T01:54:30.830Z,95.50
2023-11-15T01:56:57.809Z,95.50
2023-11-15T01:59:24.866Z,95.40
2023-11-15T02:01:54.072Z,95.50
2023-11-15T02:04:21.099Z,95.40
2023-11-15T02:06:48.175Z,95.40
2023-11-15T02:09:15.639Z,95.50
2023-11-15T02:11:42.869Z,95.80
2023-11-15T02:14:10.901Z,95.40
2023-11-15T02:16:38.202Z,95.40
2023-11-15T02:19:05.611Z,95.60
2023-11-15T02:21:33.412Z,95.40
2023-11-15T02:24:00.478Z,95.30
2023-11-15T02:26:27.464Z,95.40
2023-11-15T02:28:55.320Z,95.50
2023-11-15T02:31:22.376Z,95.50
2023-11-15T02:33:49.375Z,95.50
2023-11-15T02:36:16.299Z,95.50
2023-11-15T02:38:44.154Z,95.60
2023-11-15T02:41:11.280Z,95.60
2023-11-15T02:43:38.394Z,95.70
2023-11-15T02:46:06.009Z,96.10
2023-11-15T02:48:33.565Z,95.80
2023-11-15T02:51:00.812Z,95.70
2023-11-15T02:53:27.843Z,95.70
2023-11-15T02:55:54.843Z,95.60
2023-11-15T02:58:21.836Z,95.60
2023-11-15T03:00:48.790Z,95.70
2023-11-15T03:03:15.978Z,95.70
2023-11-15T03:05:43.351Z,95.70
2023-11-15T03:08:10.492Z,95.80
2023-11-15T03:10:38.600Z,95.80
2023-11-15T03:13:05.598Z,95.80
2023-11-15T03:15:33.240Z,95.80
2023-11-15T03:18:00.405Z,96.00
2023-11-15T03:20:27.583Z,96.00
2023-11-15T03:22:54.888Z,96.00
2023-11-15T03:25:22.561Z,96.00
2023-11-15T03:27:49.612Z,96.10
2023-11-15T03:30:16.880Z,96.20
2023-11-15T03:32:47.069Z,96.20
2023-11-15T03:35:14.132Z,96.30
2023-11-15T03:37:42.851Z,96.40
2023-11-15T03:40:10.290Z,96.40
2023-11-15T03:42:38.202Z,96.60
2023-11-15T03:45:06.954Z,96.60
2023-11-15T03:47:34.304Z,96.70
2023-11-15T03:50:01.552Z,96.80
2023-11-15T03:52:28.567Z,96.80
2023-11-15T03:54:55.583Z,96.80
2023-11-15T03:57:22.637Z,96.90
2023-11-15T03:59:50.087Z,96.90
2023-11-15T04:02:17.194Z,97.00
2023-11-15T04:04:44.379Z,97.00
2023-11-15T04:07:11.499Z,97.00
2023-11-15T04:09:40.020Z,97.00
2023-11-15T04:12:07.294Z,97.10
2023-11-15T04:14:35.601Z,97.50
2023-11-15T04:17:02.648Z,97.20
2023-11-15T04:19:29.548Z,97.20
2023-11-15T04:22:08.309Z,97.30
2023-11-15T04:24:40.133Z,97.40
2023-11-15T04:27:07.857Z,97.50
2023-11-15T04:29:35.039Z,97.50
2023-11-15T04:32:02.074Z,97.50
2023-11-15T04:34:29.004Z,97.50
2023-11-15T04:36:55.954Z,97.50
2023-11-15T04:39:23.454Z,97.60
2023-11-15T04:41:50.541Z,97.70
2023-11-15T04:44:17.741Z,97.70
2023-11-15T04:46:44.689Z,97.80
2023-11-15T04:49:11.624Z,97.90
2023-11-15T04:51:38.504Z,97.90
2023-11-15T04:54:06.939Z,97.90
2023-11-15T04:56:36.773Z,98.00
2023-11-15T04:59:04.145Z,98.00
2023-11-15T05:01:31.075Z,98.00
2023-11-15T05:03:58.246Z,98.10
2023-11-15T05:06:25.293Z,98.10
2023-11-15T05:08:52.277Z,98.20
2023-11-15T05:11:19.188Z,98.30
2023-11-15T05:13:46.119Z,98.30
2023-11-15T05:16:13.161Z,98.30
2023-11-15T05:18:40.075Z,98.40
2023-11-15T05:21:07.906Z,98.40
2023-11-15T05:23:35.646Z,98.50
2023-11-15T05:26:02.838Z,98.50
2023-11-15T05:28:29.805Z,98.60
2023-11-15T05:30:56.753Z,98.60
2023-11-15T05:33:23.724Z,98.70
2023-11-15T05:35:50.662Z,98.70
2023-11-15T05:38:19.069Z,98.80
2023-11-15T05:40:46.442Z,98.90
2023-11-15T05:43:13.342Z,98.90
2023-11-15T05:45:40.254Z,98.90
2023-11-15T05:48:07.552Z,99.10
2023-11-15T05:50:34.608Z,99.30
2023-11-15T05:53:01.541Z,99.20
2023-11-15T05:55:29.675Z,99.30
2023-11-15T05:57:56.642Z,99.40
2023-11-15T06:00:23.647Z,99.50
2023-11-15T06:02:52.274Z,99.40
2023-11-15T06:05:20.817Z,99.40
2023-11-15T06:07:47.763Z,99.30
2023-11-15T06:10:15.526Z,99.30
2023-11-15T06:12:42.594Z,99.30
2023-11-15T06:15:10.926Z,99.30
2023-11-15T06:17:40.737Z,99.40
2023-11-15T06:20:10.731Z,99.20
2023-11-15T06:22:39.480Z,99.20
2023-11-15T06:25:10.084Z,99.10
2023-11-15T06:27:37.504Z,99.10
2023-11-15T06:30:06.104Z,99.00
2023-11-15T06:32:33.319Z,98.90
2023-11-15T06:35:00.289Z,98.80
2023-11-15T06:37:27.205Z,98.90
2023-11-15T06:39:54.100Z,98.80
2023-11-15T06:42:22.424Z,98.80
2023-11-15T06:44:49.394Z,98.80
2023-11-15T06:47:16.360Z,98.80
2023-11-15T06:49:43.969Z,98.80
2023-11-15T06:52:10.917Z,98.80
2023-11-15T06:54:38.059Z,98.80
2023-11-15T06:57:07.588Z,98.80
2023-11-15T06:59:34.914Z,98.80
2023-11-15T07:02:01.897Z,98.70
2023-11-15T07:04:29.455Z,98.70
2023-11-15T07:06:56.926Z,98.70
2023-11-15T07:09:23.842Z,98.70
2023-11-15T07:11:52.954Z,98.60
2023-11-15T07:14:21.330Z,98.60
2023-11-15T07:16:59.609Z,98.60
2023-11-15T07:19:26.936Z,98.60
2023-11-15T07:21:58.211Z,98.50
2023-11-15T07:24:29.051Z,98.50
2023-11-15T07:26:56.035Z,98.60
2023-11-15T07:29:22.972Z,98.60
2023-11-15T07:31:54.177Z,98.60
2023-11-15T07:34:23.397Z,98.70
2023-11-15T07:36:51.253Z,98.60
2023-11-15T07:39:20.145Z,98.60
2023-11-15T07:41:47.298Z,98.60
2023-11-15T07:44:18.402Z,98.50
2023-11-15T07:46:53.166Z,98.60
2023-11-15T07:49:21.617Z,98.60
2023-11-15T07:51:49.237Z,98.40
2023-11-15T07:54:16.183Z,98.50
2023-11-15T07:56:43.875Z,98.50
2023-11-15T07:59:12.242Z,98.50
2023-11-15T08:01:44.927Z,98.50
2023-11-15T08:04:15.033Z,98.60
2023-11-15T08:06:43.637Z,98.40
2023-11-15T08:09:25.102Z,98.10
2023-11-15T08:11:56.785Z,98.10
2023-11-15T08:14:24.281Z,98.10
2023-11-15T08:16:51.382Z,98.10
2023-11-15T08:19:21.862Z,98.10
2023-11-15T08:21:49.346Z,98.10
2023-11-15T08:24:22.454Z,97.90
2023-11-15T08:26:59.494Z,97.80
2023-11-15T08:29:26.482Z,97.80
2023-11-15T08:31:53.366Z,97.80
2023-11-15T08:34:24.104Z,97.60
2023-11-15T08:36:51.928Z,97.70
2023-11-15T08:39:18.978Z,97.80
2023-11-15T08:41:47.750Z,97.50
2023-11-15T08:44:15.930Z,97.50
2023-11-15T08:46:44.084Z,97.50
2023-11-15T08:49:13.720Z,97.50
2023-11-15T08:51:42.092Z,97.70
2023-11-15T08:54:10.878Z,97.60
2023-11-15T08:56:44.171Z,97.60
2023-11-15T08:59:15.441Z,97.60
2023-11-15T09:01:43.686Z,97.50
2023-11-15T09:04:13.803Z,97.50
2023-11-15T09:06:47.886Z,97.50
2023-11-15T09:09:16.199Z,97.40
2023-11-15T09:11:44.234Z,97.30
2023-11-15T09:14:11.656Z,97.10
2023-11-15T09:16:38.632Z,97.30
2023-11-15T09:19:05.903Z,97.40
2023-11-15T09:21:34.649Z,97.20
2023-11-15T09:24:02.381Z,97.30
2023-11-15T09:26:29.344Z,97.20
2023-11-15T09:28:56.239Z,97.00
2023-11-15T09:31:24.007Z,96.60
2023-11-15T09:33:53.189Z,96.50
2023-11-15T09:36:20.435Z,96.40
2023-11-15T09:38:47.544Z,96.30
2023-11-15T09:41:14.490Z,96.30
2023-11-15T09:43:43.086Z,96.30
2023-11-15T09:46:14.007Z,96.40
2023-11-15T09:48:53.099Z,96.50
2023-11-15T09:51:31.119Z,96.50
2023-11-15T09:54:08.489Z,96.60
2023-11-15T09:56:46.532Z,96.70
2023-11-15T09:59:14.393Z,96.80
2023-11-15T10:01:46.588Z,96.90
2023-11-15T10:04:27.458Z,97.10
2023-11-15T10:07:05.263Z,97.10
2023-11-15T10:09:38.163Z,97.20
2023-11-15T10:12:07.421Z,97.10
2023-11-15T10:14:36.597Z,96.90
2023-11-15T10:17:08.094Z,96.80
2023-11-15T10:19:35.654Z,96.90
2023-11-15T10:22:06.716Z,96.50
2023-11-15T10:24:35.873Z,96.60
2023-11-15T10:27:09.378Z,96.50
2023-11-15T10:29:40.171Z,96.40
2023-11-15T10:32:07.824Z,96.20
2023-11-15T10:34:48.254Z,96.10
2023-11-15T10:37:15.185Z,95.90
2023-11-15T10:39:45.125Z,95.90
2023-11-15T10:42:14.942Z,95.70
2023-11-15T10:44:48.284Z,95.90
2023-11-15T10:47:20.948Z,96.10
2023-11-15T10:49:59.086Z,96.30
2023-11-15T10:52:27.472Z,96.20
2023-11-15T10:54:58.472Z,96.10
2023-11-15T10:57:29.107Z,96.30
2023-11-15T10:59:59.192Z,96.20
2023-11-15T11:02:30.744Z,96.30
2023-11-15T11:04:58.225Z,96.40
2023-11-15T11:07:40.484Z,96.40
2023-11-15T11:10:19.737Z,96.40
2023-11-15T11:12:47.933Z,96.30
2023-11-15T11:15:28.928Z,96.30
2023-11-15T11:18:17.257Z,96.30
2023-11-15T11:21:01.121Z,96.50
2023-11-15T11:23:28.195Z,96.60
2023-11-15T11:26:34.150Z,96.70
2023-11-15T11:29:04.840Z,96.60
2023-11-15T11:31:32.101Z,96.70
2023-11-15T11:34:10.421Z,96.70
2023-11-15T11:36:54.536Z,96.70
2023-11-15T11:39:47.480Z,96.70
2023-11-15T11:42:27.583Z,96.90
2023-11-15T11:44:58.657Z,97.00
2023-11-15T11:47:26.251Z,96.90
2023-11-15T11:49:53.866Z,97.10
2023-11-15T11:52:20.973Z,97.20
2023-11-15T11:54:53.157Z,97.30
2023-11-15T11:57:27.866Z,97.20
2023-11-15T12:00:12.180Z,97.20
2023-11-15T12:02:41.639Z,97.20
2023-11-15T12:05:11.462Z,97.10
2023-11-15T12:07:46.401Z,97.00
2023-11-15T12:10:15.766Z,97.00
2023-11-15T12:13:05.978Z,97.00
2023-11-15T12:15:37.132Z,97.00
2023-11-15T12:18:04.543Z,96.80
2023-11-15T12:20:39.640Z,96.70
2023-11-15T12:23:11.322Z,96.70
2023-11-15T12:25:56.249Z,97.00
2023-11-15T12:28:31.893Z,96.20
2023-11-15T12:31:05.204Z,95.80
2023-11-15T12:33:35.149Z,95.80
2023-11-15T12:36:02.597Z,95.90
2023-11-15T12:38:30.658Z,96.00
2023-11-15T12:41:07.495Z,96.00
2023-11-15T12:43:35.286Z,95.70
2023-11-15T12:46:19.017Z,95.70
2023-11-15T12:48:49.100Z,95.80
2023-11-15T12:51:16.544Z,95.70
2023-11-15T12:53:43.771Z,95.30
2023-11-15T12:56:18.663Z,95.20
2023-11-15T12:58:46.280Z,95.00
2023-11-15T13:01:17.837Z,94.90
2023-11-15T13:03:46.357Z,94.90
2023-11-15T13:06:15.470Z,94.90
2023-11-15T13:08:49.714Z,94.90
2023-11-15T13:11:22.158Z,94.90
2023-11-15T13:13:50.848Z,94.90
2023-11-15T13:16:19.866Z,95.00
2023-11-15T13:18:49.641Z,95.00
2023-11-15T13:21:19.506Z,94.60
2023-11-15T13:23:48.105Z,94.60
2023-11-15T13:26:16.058Z,94.50
2023-11-15T13:28:45.473Z,94.50
2023-11-15T13:31:16.148Z,94.30
2023-11-15T13:33:49.214Z,94.30
2023-11-15T13:36:19.737Z,94.40
2023-11-15T13:38:47.733Z,94.50
2023-11-15T13:41:18.702Z,94.60
2023-11-15T13:43:48.752Z,94.60
2023-11-15T13:46:15.972Z,94.60
2023-11-15T13:48:43.329Z,94.50
2023-11-15T13:51:12.590Z,94.50
2023-11-15T13:53:42.774Z,94.50
2023-11-15T13:56:10.013Z,94.60
2023-11-15T13:58:37.653Z,94.40
2023-11-15T14:01:06.426Z,94.40
2023-11-15T14:03:33.956Z,94.30
2023-11-15T14:06:04.402Z,94.20
2023-11-15T14:11:13.788Z,94.40
2023-11-15T14:13:43.107Z,94.50
2023-11-15T14:16:10.430Z,94.60
2023-11-15T14:18:37.519Z,94.70
2023-11-15T14:21:06.051Z,95.10
2023-11-15T14:23:34.636Z,94.80
2023-11-15T14:26:01.793Z,94.70
2023-11-15T14:28:28.724Z,94.70
2023-11-15T14:30:56.230Z,94.60
2023-11-15T14:33:23.325Z,94.50
2023-11-15T14:35:50.553Z,94.40
2023-11-15T14:38:17.566Z,94.30
2023-11-15T14:40:45.495Z,94.30
2023-11-15T14:43:15.754Z,94.30
2023-11-15T14:45:44.308Z,94.50
2023-11-15T14:48:11.804Z,94.60
2023-11-15T14:50:40.888Z,94.50
2023-11-15T14:53:30.382Z,94.70
2023-11-15T14:55:57.725Z,94.40
2023-11-15T14:58:26.514Z,94.20
2023-11-15T15:00:53.673Z,93.80
2023-11-15T15:03:23.385Z,94.00
2023-11-15T15:05:51.978Z,94.00
2023-11-15T15:08:22.459Z,94.00
2023-11-15T15:10:54.112Z,94.00
2023-11-15T15:13:21.334Z,94.00
2023-11-15T15:15:48.255Z,94.10
2023-11-15T15:18:19.446Z,94.10
2023-11-15T15:20:52.225Z,94.30
2023-11-15T15:23:19.519Z,94.30
2023-11-15T15:25:46.932Z,94.20
2023-11-15T15:28:15.627Z,94.10
2023-11-15T15:30:43.982Z,94.00
2023-11-15T15:33:11.757Z,94.00
2023-11-15T15:35:39.359Z,93.90
2023-11-15T15:38:07.295Z,93.90
2023-11-15T15:40:39.481Z,94.00
2023-11-15T15:43:06.557Z,94.20
2023-11-15T15:45:33.509Z,94.30
2023-11-15T15:48:01.212Z,94.40
2023-11-15T15:50:28.462Z,94.30
2023-11-15T15:52:56.189Z,94.30
2023-11-15T15:55:23.483Z,94.30
2023-11-15T15:57:50.757Z,94.40
2023-11-15T16:00:18.322Z,94.50
2023-11-15T16:02:47.591Z,94.50
2023-11-15T16:05:17.370Z,94.50
2023-11-15T16:07:44.734Z,94.40
2023-11-15T16:10:12.328Z,94.50
2023-11-15T16:12:39.265Z,94.60
2023-11-15T16:15:08.004Z,94.60
2023-11-15T16:17:36.014Z,94.60
2023-11-15T16:20:08.777Z,94.60
2023-11-15T16:22:35.837Z,94.60
2023-11-15T16:25:02.750Z,94.60
2023-11-15T16:27:34.480Z,94.70
2023-11-15T16:30:10.577Z,94.80
2023-11-15T16:32:37.607Z,94.90
2023-11-15T16:35:06.571Z,95.00
2023-11-15T16:37:36.775Z,95.10
2023-11-15T16:40:06.449Z,95.20
2023-11-15T16:42:33.796Z,95.20
2023-11-15T16:45:02.061Z,95.30
2023-11-15T16:47:29.477Z,95.40
2023-11-15T16:49:58.100Z,95.30
2023-11-15T16:52:25.033Z,95.40
2023-11-15T16:54:52.013Z,95.40
2023-11-15T16:57:18.970Z,95.30
2023-11-15T16:59:46.067Z,95.40
2023-11-15T17:02:13.270Z,95.50
2023-11-15T17:04:40.219Z,95.60
2023-11-15T17:07:07.975Z,95.60
2023-11-15T17:09:37.192Z,95.70
2023-11-15T17:12:05.267Z,95.80
2023-11-15T17:14:32.536Z,95.80
2023-11-15T17:17:02.275Z,95.80
2023-11-15T17:19:29.220Z,95.90
2023-11-15T17:21:58.852Z,95.90
2023-11-15T17:24:26.992Z,96.00
2023-11-15T17:26:54.157Z,96.00
2023-11-15T17:29:21.476Z,96.10
2023-11-15T17:31:48.535Z,96.10
2023-11-15T17:34:15.653Z,96.20
2023-11-15T17:36:42.681Z,96.20
2023-11-15T17:39:13.030Z,96.20
2023-11-15T17:41:40.102Z,96.30
2023-11-15T17:44:12.129Z,96.40
2023-11-15T17:46:43.828Z,96.50
2023-11-15T17:49:12.023Z,96.50
2023-11-15T17:51:39.267Z,96.50
2023-11-15T17:54:08.310Z,96.60
2023-11-15T17:56:35.536Z,96.60
2023-11-15T17:59:03.895Z,96.70
2023-11-15T18:01:34.599Z,96.80
2023-11-15T18:04:06.753Z,96.80
2023-11-15T18:06:33.749Z,96.80
2023-11-15T18:09:00.815Z,96.80
2023-11-15T18:11:27.757Z,96.90
2023-11-15T18:13:56.648Z,96.90
2023-11-15T18:16:25.171Z,96.90
2023-11-15T18:18:55.813Z,96.90
2023-11-15T18:21:23.349Z,96.90
2023-11-15T18:26:23.635Z,97.00
2023-11-15T18:28:50.601Z,97.00
2023-11-15T18:31:17.599Z,97.00
2023-11-15T18:33:44.631Z,97.10
2023-11-15T18:36:12.035Z,97.10
2023-11-15T18:38:40.443Z,97.10
2023-11-15T18:41:08.688Z,97.20
2023-11-15T18:43:36.402Z,97.20
2023-11-15T18:46:03.642Z,97.20
2023-11-15T18:48:30.691Z,97.20
2023-11-15T18:50:57.881Z,97.30
2023-11-15T18:53:24.949Z,97.30
2023-11-15T18:55:51.876Z,97.40
2023-11-15T18:58:19.587Z,97.40
2023-11-15T19:00:46.523Z,97.50
2023-11-15T19:03:13.573Z,97.50
2023-11-15T19:05:43.288Z,97.60
2023-11-15T19:08:12.104Z,97.60
2023-11-15T19:10:39.031Z,97.60
2023-11-15T19:13:06.767Z,97.60
2023-11-15T19:15:35.179Z,97.60
2023-11-15T19:18:02.880Z,97.60
2023-11-15T19:20:31.397Z,97.60
2023-11-15T19:22:59.189Z,97.60
2023-11-15T19:25:26.897Z,97.50
2023-11-15T19:27:54.273Z,97.50
2023-11-15T19:30:21.328Z,97.40
2023-11-15T19:32:48.604Z,97.40
2023-11-15T19:35:18.060Z,97.50
2023-11-15T19:37:45.014Z,97.50
2023-11-15T19:40:12.568Z,97.50
2023-11-15T19:42:40.033Z,97.60
2023-11-15T19:45:09.236Z,97.60
2023-11-15T19:47:36.399Z,97.60
2023-11-15T19:50:03.754Z,97.60
2023-11-15T19:52:30.801Z,97.70
2023-11-15T19:54:58.524Z,97.70
2023-11-15T19:59:55.165Z,97.90
2023-11-15T20:02:23.810Z,97.90
2023-11-15T20:04:54.255Z,97.90
2023-11-15T20:07:21.274Z,98.00
2023-11-15T20:09:48.223Z,98.00
2023-11-15T20:12:16.303Z,97.90
2023-11-15T20:14:44.339Z,98.00
2023-11-15T20:17:11.260Z,98.00
2023-11-15T20:19:38.835Z,98.00
2023-11-15T20:22:06.121Z,98.00
2023-11-15T20:24:34.482Z,98.00
2023-11-15T20:27:01.445Z,98.00
2023-11-15T20:29:28.378Z,98.00
2023-11-15T20:31:55.284Z,98.00
2023-11-15T20:34:22.235Z,98.00
2023-11-15T20:36:50.307Z,98.00
2023-11-15T20:39:22.243Z,98.00
2023-11-15T20:41:53.132Z,98.10
2023-11-15T20:44:20.654Z,98.10
2023-11-15T20:46:47.801Z,98.10
2023-11-15T20:49:14.948Z,98.10
2023-11-15T20:51:45.674Z,98.20
2023-11-15T20:54:12.650Z,98.10
2023-11-15T20:56:40.018Z,98.10
2023-11-15T20:59:08.794Z,98.10
2023-11-15T21:01:35.739Z,98.10
2023-11-15T21:04:08.523Z,98.10
2023-11-15T21:06:36.975Z,98.10
2023-11-15T21:09:09.948Z,98.10
2023-11-15T21:11:39.854Z,98.20
2023-11-15T21:14:08.752Z,98.10
2023-11-15T21:16:40.182Z,98.10
2023-11-15T21:19:09.321Z,98.00
2023-11-15T21:21:38.050Z,97.80
2023-11-15T21:24:09.067Z,97.80
2023-11-15T21:26:36.276Z,97.80
2023-11-15T21:29:09.500Z,97.80
2023-11-15T21:31:38.189Z,97.70
2023-11-15T21:34:06.910Z,97.60
2023-11-15T21:36:34.974Z,97.60
2023-11-15T21:39:03.744Z,97.40
2023-11-15T21:41:31.412Z,97.40
2023-11-15T21:44:00.584Z,97.40
2023-11-15T21:46:29.767Z,97.50
2023-11-15T21:48:58.260Z,97.50
2023-11-15T21:51:25.562Z,97.50
2023-11-15T21:53:54.568Z,97.40
2023-11-15T21:56:22.199Z,97.20
2023-11-15T21:58:50.090Z,97.20
2023-11-15T22:01:17.110Z,97.20
2023-11-15T22:03:44.307Z,97.00
2023-11-15T22:06:11.820Z,97.00
2023-11-15T22:08:40.028Z,96.80
2023-11-15T22:11:07.547Z,96.80
2023-11-15T22:13:34.686Z,96.70
2023-11-15T22:16:01.812Z,96.70
2023-11-15T22:18:30.411Z,96.70
2023-11-15T22:20:58.246Z,96.70
2023-11-15T22:23:25.720Z,96.70
2023-11-15T22:25:52.817Z,96.70
2023-11-15T22:28:19.918Z,96.70
2023-11-15T22:30:47.732Z,96.80
2023-11-15T22:33:14.800Z,96.80
2023-11-15T22:35:48.828Z,96.70
2023-11-15T22:38:16.285Z,96.70
2023-11-15T22:40:43.239Z,96.70
2023-11-15T22:43:10.174Z,96.70
2023-11-15T22:45:38.012Z,96.60
2023-11-15T22:48:05.541Z,96.60
2023-11-15T22:50:32.478Z,96.60
2023-11-15T22:52:59.397Z,96.60
2023-11-15T22:55:26.357Z,96.50
2023-11-15T22:57:53.268Z,96.60
2023-11-15T23:00:33.328Z,96.70
2023-11-15T23:03:10.611Z,96.80
2023-11-15T23:05:40.059Z,96.70
2023-11-15T23:08:07.682Z,96.70
2023-11-15T23:10:40.923Z,96.80
2023-11-15T23:13:07.898Z,96.80
2023-11-15T23:15:34.954Z,96.90
2023-11-15T23:18:02.129Z,96.90
2023-11-15T23:20:30.739Z,97.00
2023-11-15T23:22:58.168Z,97.10
2023-11-15T23:25:30.021Z,97.10
2023-11-15T23:27:57.460Z,97.50
2023-11-15T23:30:25.217Z,97.30
2023-11-15T23:32:55.576Z,97.40
2023-11-15T23:35:23.222Z,97.50
2023-11-15T23:37:50.616Z,97.60
2023-11-15T23:40:18.962Z,97.70
2023-11-15T23:42:47.499Z,97.70
2023-11-15T23:45:14.819Z,97.60
2023-11-15T23:47:41.858Z,97.70
2023-11-15T23:50:09.821Z,97.70
2023-11-15T23:52:36.813Z,97.70
2023-11-15T23:55:04.876Z,97.70
2023-11-15T23:57:33.134Z,97.90
